sensor_id;sensor_type;location;lat;lon;timestamp;temperature;humidity
22167;DHT22;11249;52.468;13.776;2023-08-06T00:01:35;17.20;99.90
22167;DHT22;11249;52.468;13.776;2023-08-06T00:04:02;17.20;99.90
22167;DHT22;11249;52.468;13.776;2023-08-06T00:06:29;17.20;99.90
22167;DHT22;11249;52.468;13.776;2023-08-06T00:08:55;17.20;99.90
22167;DHT22;11249;52.468;13.776;2023-08-06T00:11:22;17.10;99.90
22167;DHT22;11249;52.468;13.776;2023-08-06T00:13:49;17.20;99.90
22167;DHT22;11249;52.468;13.776;2023-08-06T00:16:16;17.20;99.90
22167;DHT22;11249;52.468;13.776;2023-08-06T00:18:42;17.20;99.90
22167;DHT22;11249;52.468;13.776;2023-08-06T00:21:09;17.10;99.90
22167;DHT22;11249;52.468;13.776;2023-08-06T00:23:36;17.10;99.90
22167;DHT22;11249;52.468;13.776;2023-08-06T00:26:03;17.20;99.90
22167;DHT22;11249;52.468;13.776;2023-08-06T00:28:29;17.20;99.90
22167;DHT22;11249;52.468;13.776;2023-08-06T00:30:56;17.20;99.90
22167;DHT22;11249;52.468;13.776;2023-08-06T00:33:23;17.20;99.90
22167;DHT22;11249;52.468;13.776;2023-08-06T00:35:50;17.20;99.90
22167;DHT22;11249;52.468;13.776;2023-08-06T00:38:17;17.20;99.90
22167;DHT22;11249;52.468;13.776;2023-08-06T00:40:44;17.20;99.90
22167;DHT22;11249;52.468;13.776;2023-08-06T00:43:11;17.20;99.90
22167;DHT22;11249;52.468;13.776;2023-08-06T00:45:38;17.20;99.90
22167;DHT22;11249;52.468;13.776;2023-08-06T00:48:05;17.20;99.90
22167;DHT22;11249;52.468;13.776;2023-08-06T00:50:33;17.20;99.90
22167;DHT22;11249;52.468;13.776;2023-08-06T00:53:00;17.20;99.90
22167;DHT22;11249;52.468;13.776;2023-08-06T00:55:27;17.10;99.90
22167;DHT22;11249;52.468;13.776;2023-08-06T00:57:55;17.10;99.90
22167;DHT22;11249;52.468;13.776;2023-08-06T01:00:24;17.10;99.90
22167;DHT22;11249;52.468;13.776;2023-08-06T01:02:51;17.10;99.90
22167;DHT22;11249;52.468;13.776;2023-08-06T01:05:18;17.10;99.90
22167;DHT22;11249;52.468;13.776;2023-08-06T01:08:22;17.10;99.90
22167;DHT22;11249;52.468;13.776;2023-08-06T01:13:44;17.10;99.90
22167;DHT22;11249;52.468;13.776;2023-08-06T01:16:16;17.10;99.90
22167;DHT22;11249;52.468;13.776;2023-08-06T01:18:43;17.00;99.90
22167;DHT22;11249;52.468;13.776;2023-08-06T01:21:13;17.00;99.90
22167;DHT22;11249;52.468;13.776;2023-08-06T01:23:40;17.00;99.90
22167;DHT22;11249;52.468;13.776;2023-08-06T01:26:19;17.00;99.90
22167;DHT22;11249;52.468;13.776;2023-08-06T01:29:23;16.90;99.90
22167;DHT22;11249;52.468;13.776;2023-08-06T01:31:43;16.90;99.90
22167;DHT22;11249;52.468;13.776;2023-08-06T01:34:16;16.90;99.90
22167;DHT22;11249;52.468;13.776;2023-08-06T01:36:44;16.90;99.90
22167;DHT22;11249;52.468;13.776;2023-08-06T01:39:11;16.90;99.90
22167;DHT22;11249;52.468;13.776;2023-08-06T01:41:38;16.90;99.90
22167;DHT22;11249;52.468;13.776;2023-08-06T01:44:04;16.90;99.90
22167;DHT22;11249;52.468;13.776;2023-08-06T01:46:31;16.80;99.90
22167;DHT22;11249;52.468;13.776;2023-08-06T01:48:58;16.80;99.90
22167;DHT22;11249;52.468;13.776;2023-08-06T01:51:25;16.80;99.90
22167;DHT22;11249;52.468;13.776;2023-08-06T01:53:51;16.80;99.90
22167;DHT22;11249;52.468;13.776;2023-08-06T01:56:18;16.80;99.90
22167;DHT22;11249;52.468;13.776;2023-08-06T01:58:45;16.70;99.90
22167;DHT22;11249;52.468;13.776;2023-08-06T02:01:12;16.70;99.90
22167;DHT22;11249;52.468;13.776;2023-08-06T02:03:38;16.70;99.90
22167;DHT22;11249;52.468;13.776;2023-08-06T02:06:05;16.70;99.90
22167;DHT22;11249;52.468;13.776;2023-08-06T02:08:32;16.60;99.90
22167;DHT22;11249;52.468;13.776;2023-08-06T02:10:58;16.60;99.90
22167;DHT22;11249;52.468;13.776;2023-08-06T02:13:25;16.60;99.90
22167;DHT22;11249;52.468;13.776;2023-08-06T02:15:52;16.60;99.90
22167;DHT22;11249;52.468;13.776;2023-08-06T02:18:19;16.60;99.90
22167;DHT22;11249;52.468;13.776;2023-08-06T02:20:58;16.60;99.90
22167;DHT22;11249;52.468;13.776;2023-08-06T02:23:26;16.50;99.90
22167;DHT22;11249;52.468;13.776;2023-08-06T02:26:00;16.50;99.90
22167;DHT22;11249;52.468;13.776;2023-08-06T02:28:28;16.50;99.90
22167;DHT22;11249;52.468;13.776;2023-08-06T02:30:55;16.50;99.90
22167;DHT22;11249;52.468;13.776;2023-08-06T02:33:22;16.50;99.90
22167;DHT22;11249;52.468;13.776;2023-08-06T02:35:49;16.50;99.90
22167;DHT22;11249;52.468;13.776;2023-08-06T02:38:15;16.50;99.90
22167;DHT22;11249;52.468;13.776;2023-08-06T02:40:46;16.40;99.90
22167;DHT22;11249;52.468;13.776;2023-08-06T02:43:13;16.40;99.90
22167;DHT22;11249;52.468;13.776;2023-08-06T02:45:40;16.30;99.90
22167;DHT22;11249;52.468;13.776;2023-08-06T02:48:06;16.30;99.90
22167;DHT22;11249;52.468;13.776;2023-08-06T02:50:42;16.30;99.90
22167;DHT22;11249;52.468;13.776;2023-08-06T02:53:09;16.30;99.90
22167;DHT22;11249;52.468;13.776;2023-08-06T02:55:36;16.30;99.90
22167;DHT22;11249;52.468;13.776;2023-08-06T02:58:03;16.30;99.90
22167;DHT22;11249;52.468;13.776;2023-08-06T03:00:29;16.30;99.90
22167;DHT22;11249;52.468;13.776;2023-08-06T03:02:56;16.20;99.90
22167;DHT22;11249;52.468;13.776;2023-08-06T03:05:23;16.30;99.90
22167;DHT22;11249;52.468;13.776;2023-08-06T03:07:51;16.30;99.90
22167;DHT22;11249;52.468;13.776;2023-08-06T03:10:17;16.30;99.90
22167;DHT22;11249;52.468;13.776;2023-08-06T03:12:44;16.30;99.90
22167;DHT22;11249;52.468;13.776;2023-08-06T03:15:11;16.20;99.90
22167;DHT22;11249;52.468;13.776;2023-08-06T03:17:37;16.20;99.90
22167;DHT22;11249;52.468;13.776;2023-08-06T03:20:05;16.20;99.90
22167;DHT22;11249;52.468;13.776;2023-08-06T03:22:32;16.20;99.90
22167;DHT22;11249;52.468;13.776;2023-08-06T03:24:59;16.20;99.90
22167;DHT22;11249;52.468;13.776;2023-08-06T03:27:26;16.20;99.90
22167;DHT22;11249;52.468;13.776;2023-08-06T03:29:52;16.10;99.90
22167;DHT22;11249;52.468;13.776;2023-08-06T03:32:19;16.10;99.90
22167;DHT22;11249;52.468;13.776;2023-08-06T03:34:46;16.10;99.90
22167;DHT22;11249;52.468;13.776;2023-08-06T03:37:13;16.00;99.90
22167;DHT22;11249;52.468;13.776;2023-08-06T03:39:39;16.10;99.90
22167;DHT22;11249;52.468;13.776;2023-08-06T03:42:06;16.10;99.90
22167;DHT22;11249;52.468;13.776;2023-08-06T03:44:33;16.10;99.90
22167;DHT22;11249;52.468;13.776;2023-08-06T03:46:59;16.10;99.90
22167;DHT22;11249;52.468;13.776;2023-08-06T03:49:26;16.10;99.90
22167;DHT22;11249;52.468;13.776;2023-08-06T03:51:53;16.00;99.90
22167;DHT22;11249;52.468;13.776;2023-08-06T03:54:20;16.00;99.90
22167;DHT22;11249;52.468;13.776;2023-08-06T03:56:46;16.00;99.90
22167;DHT22;11249;52.468;13.776;2023-08-06T03:59:13;16.00;99.90
22167;DHT22;11249;52.468;13.776;2023-08-06T04:01:40;16.00;99.90
22167;DHT22;11249;52.468;13.776;2023-08-06T04:04:06;16.00;99.90
22167;DHT22;11249;52.468;13.776;2023-08-06T04:06:33;16.00;99.90
22167;DHT22;11249;52.468;13.776;2023-08-06T04:09:00;16.00;99.90
22167;DHT22;11249;52.468;13.776;2023-08-06T04:11:26;16.00;99.90
22167;DHT22;11249;52.468;13.776;2023-08-06T04:13:53;16.00;99.90
22167;DHT22;11249;52.468;13.776;2023-08-06T04:16:21;16.00;99.90
22167;DHT22;11249;52.468;13.776;2023-08-06T04:18:48;16.00;99.90
22167;DHT22;11249;52.468;13.776;2023-08-06T04:21:15;16.00;99.90
22167;DHT22;11249;52.468;13.776;2023-08-06T04:23:42;16.00;99.90
22167;DHT22;11249;52.468;13.776;2023-08-06T04:26:08;16.00;99.90
22167;DHT22;11249;52.468;13.776;2023-08-06T04:28:35;16.00;99.90
22167;DHT22;11249;52.468;13.776;2023-08-06T04:31:02;16.00;99.90
22167;DHT22;11249;52.468;13.776;2023-08-06T04:33:28;16.00;99.90
22167;DHT22;11249;52.468;13.776;2023-08-06T04:35:55;15.90;99.90
22167;DHT22;11249;52.468;13.776;2023-08-06T04:38:26;15.90;99.90
22167;DHT22;11249;52.468;13.776;2023-08-06T04:40:52;16.00;99.90
22167;DHT22;11249;52.468;13.776;2023-08-06T04:43:19;16.00;99.90
22167;DHT22;11249;52.468;13.776;2023-08-06T04:45:49;16.00;99.90
22167;DHT22;11249;52.468;13.776;2023-08-06T04:48:17;16.00;99.90
22167;DHT22;11249;52.468;13.776;2023-08-06T04:50:45;16.00;99.90
22167;DHT22;11249;52.468;13.776;2023-08-06T04:53:12;16.00;99.90
22167;DHT22;11249;52.468;13.776;2023-08-06T04:55:39;16.00;99.90
22167;DHT22;11249;52.468;13.776;2023-08-06T04:58:06;16.10;99.90
22167;DHT22;11249;52.468;13.776;2023-08-06T05:00:33;16.00;99.90
22167;DHT22;11249;52.468;13.776;2023-08-06T05:03:00;16.00;99.90
22167;DHT22;11249;52.468;13.776;2023-08-06T05:05:29;16.00;99.90
22167;DHT22;11249;52.468;13.776;2023-08-06T05:07:57;16.00;99.90
22167;DHT22;11249;52.468;13.776;2023-08-06T05:10:27;16.00;99.90
22167;DHT22;11249;52.468;13.776;2023-08-06T05:12:54;16.00;99.90
22167;DHT22;11249;52.468;13.776;2023-08-06T05:15:21;16.00;99.90
22167;DHT22;11249;52.468;13.776;2023-08-06T05:17:48;16.00;99.90
22167;DHT22;11249;52.468;13.776;2023-08-06T05:20:15;16.00;99.90
22167;DHT22;11249;52.468;13.776;2023-08-06T05:22:43;16.00;99.90
22167;DHT22;11249;52.468;13.776;2023-08-06T05:25:12;16.00;99.90
22167;DHT22;11249;52.468;13.776;2023-08-06T05:27:39;16.00;99.90
22167;DHT22;11249;52.468;13.776;2023-08-06T05:30:06;16.00;99.90
22167;DHT22;11249;52.468;13.776;2023-08-06T05:32:33;16.00;99.90
22167;DHT22;11249;52.468;13.776;2023-08-06T05:35:00;16.00;99.90
22167;DHT22;11249;52.468;13.776;2023-08-06T05:37:26;16.00;99.90
22167;DHT22;11249;52.468;13.776;2023-08-06T05:39:53;16.00;99.90
22167;DHT22;11249;52.468;13.776;2023-08-06T05:42:20;16.10;99.90
22167;DHT22;11249;52.468;13.776;2023-08-06T05:44:46;16.10;99.90
22167;DHT22;11249;52.468;13.776;2023-08-06T05:47:13;16.10;99.90
22167;DHT22;11249;52.468;13.776;2023-08-06T05:49:40;16.20;99.90
22167;DHT22;11249;52.468;13.776;2023-08-06T05:52:06;16.10;99.90
22167;DHT22;11249;52.468;13.776;2023-08-06T05:54:34;16.20;99.90
22167;DHT22;11249;52.468;13.776;2023-08-06T05:57:01;16.20;99.90
22167;DHT22;11249;52.468;13.776;2023-08-06T05:59:28;16.10;99.90
22167;DHT22;11249;52.468;13.776;2023-08-06T06:01:55;16.20;99.90
22167;DHT22;11249;52.468;13.776;2023-08-06T06:04:21;16.20;99.90
22167;DHT22;11249;52.468;13.776;2023-08-06T06:06:48;16.30;99.90
22167;DHT22;11249;52.468;13.776;2023-08-06T06:09:15;16.20;99.90
22167;DHT22;11249;52.468;13.776;2023-08-06T06:11:42;16.30;99.90
22167;DHT22;11249;52.468;13.776;2023-08-06T06:14:08;16.20;99.90
22167;DHT22;11249;52.468;13.776;2023-08-06T06:16:35;16.20;99.90
22167;DHT22;11249;52.468;13.776;2023-08-06T06:19:02;16.20;99.90
22167;DHT22;11249;52.468;13.776;2023-08-06T06:21:28;16.20;99.90
22167;DHT22;11249;52.468;13.776;2023-08-06T06:23:55;16.20;99.90
22167;DHT22;11249;52.468;13.776;2023-08-06T06:26:23;16.20;99.90
22167;DHT22;11249;52.468;13.776;2023-08-06T06:28:50;16.30;99.90
22167;DHT22;11249;52.468;13.776;2023-08-06T06:31:16;16.30;99.90
22167;DHT22;11249;52.468;13.776;2023-08-06T06:33:43;16.30;99.90
22167;DHT22;11249;52.468;13.776;2023-08-06T06:36:10;16.30;99.90
22167;DHT22;11249;52.468;13.776;2023-08-06T06:38:37;16.30;99.90
22167;DHT22;11249;52.468;13.776;2023-08-06T06:41:03;16.30;99.90
22167;DHT22;11249;52.468;13.776;2023-08-06T06:43:30;16.30;99.90
22167;DHT22;11249;52.468;13.776;2023-08-06T06:45:58;16.40;99.90
22167;DHT22;11249;52.468;13.776;2023-08-06T06:48:29;16.40;99.90
22167;DHT22;11249;52.468;13.776;2023-08-06T06:50:56;16.50;99.90
22167;DHT22;11249;52.468;13.776;2023-08-06T06:53:23;16.40;99.90
22167;DHT22;11249;52.468;13.776;2023-08-06T06:55:54;16.50;99.90
22167;DHT22;11249;52.468;13.776;2023-08-06T06:58:21;16.50;99.90
22167;DHT22;11249;52.468;13.776;2023-08-06T07:00:48;16.40;99.90
22167;DHT22;11249;52.468;13.776;2023-08-06T07:03:15;16.40;99.90
22167;DHT22;11249;52.468;13.776;2023-08-06T07:05:43;16.40;99.90
22167;DHT22;11249;52.468;13.776;2023-08-06T07:08:10;16.50;99.90
22167;DHT22;11249;52.468;13.776;2023-08-06T07:10:38;16.50;99.90
22167;DHT22;11249;52.468;13.776;2023-08-06T07:13:08;16.50;99.90
22167;DHT22;11249;52.468;13.776;2023-08-06T07:15:34;16.50;99.90
22167;DHT22;11249;52.468;13.776;2023-08-06T07:18:01;16.60;99.90
22167;DHT22;11249;52.468;13.776;2023-08-06T07:20:28;16.50;99.90
22167;DHT22;11249;52.468;13.776;2023-08-06T07:23:00;16.60;99.90
22167;DHT22;11249;52.468;13.776;2023-08-06T07:25:27;16.60;99.90
22167;DHT22;11249;52.468;13.776;2023-08-06T07:27:54;16.70;99.90
22167;DHT22;11249;52.468;13.776;2023-08-06T07:30:21;16.80;99.90
22167;DHT22;11249;52.468;13.776;2023-08-06T07:32:47;16.80;99.90
22167;DHT22;11249;52.468;13.776;2023-08-06T07:35:14;16.80;99.90
22167;DHT22;11249;52.468;13.776;2023-08-06T07:37:41;16.80;99.90
22167;DHT22;11249;52.468;13.776;2023-08-06T07:40:08;16.90;99.90
22167;DHT22;11249;52.468;13.776;2023-08-06T07:42:35;16.90;99.90
22167;DHT22;11249;52.468;13.776;2023-08-06T07:45:02;16.90;99.90
22167;DHT22;11249;52.468;13.776;2023-08-06T07:47:29;17.00;99.90
22167;DHT22;11249;52.468;13.776;2023-08-06T07:49:56;17.00;99.90
22167;DHT22;11249;52.468;13.776;2023-08-06T07:52:22;17.10;99.90
22167;DHT22;11249;52.468;13.776;2023-08-06T07:54:49;17.10;99.90
22167;DHT22;11249;52.468;13.776;2023-08-06T07:57:16;17.20;99.90
22167;DHT22;11249;52.468;13.776;2023-08-06T07:59:43;17.20;99.90
22167;DHT22;11249;52.468;13.776;2023-08-06T08:02:10;17.20;99.90
22167;DHT22;11249;52.468;13.776;2023-08-06T08:04:36;17.20;99.90
22167;DHT22;11249;52.468;13.776;2023-08-06T08:07:03;17.20;99.90
22167;DHT22;11249;52.468;13.776;2023-08-06T08:09:30;17.30;99.90
22167;DHT22;11249;52.468;13.776;2023-08-06T08:11:57;17.40;99.90
22167;DHT22;11249;52.468;13.776;2023-08-06T08:14:27;17.30;99.90
22167;DHT22;11249;52.468;13.776;2023-08-06T08:16:53;17.30;99.90
22167;DHT22;11249;52.468;13.776;2023-08-06T08:19:20;17.30;99.90
22167;DHT22;11249;52.468;13.776;2023-08-06T08:21:47;17.30;99.90
22167;DHT22;11249;52.468;13.776;2023-08-06T08:24:14;17.40;99.90
22167;DHT22;11249;52.468;13.776;2023-08-06T08:26:41;17.40;99.90
22167;DHT22;11249;52.468;13.776;2023-08-06T08:29:07;17.50;99.90
22167;DHT22;11249;52.468;13.776;2023-08-06T08:31:34;17.50;99.90
22167;DHT22;11249;52.468;13.776;2023-08-06T08:34:05;17.50;99.90
22167;DHT22;11249;52.468;13.776;2023-08-06T08:36:32;17.50;99.90
22167;DHT22;11249;52.468;13.776;2023-08-06T08:38:59;17.50;99.90
22167;DHT22;11249;52.468;13.776;2023-08-06T08:41:29;17.50;99.90
22167;DHT22;11249;52.468;13.776;2023-08-06T08:43:58;17.60;99.90
22167;DHT22;11249;52.468;13.776;2023-08-06T08:46:26;17.60;99.90
22167;DHT22;11249;52.468;13.776;2023-08-06T08:48:54;17.60;99.90
22167;DHT22;11249;52.468;13.776;2023-08-06T08:51:23;17.60;99.90
22167;DHT22;11249;52.468;13.776;2023-08-06T08:53:53;17.60;99.90
22167;DHT22;11249;52.468;13.776;2023-08-06T08:56:23;17.60;99.90
22167;DHT22;11249;52.468;13.776;2023-08-06T08:58:51;17.60;99.90
22167;DHT22;11249;52.468;13.776;2023-08-06T09:01:24;17.60;99.90
22167;DHT22;11249;52.468;13.776;2023-08-06T09:03:51;17.60;99.90
22167;DHT22;11249;52.468;13.776;2023-08-06T09:06:20;17.70;99.90
22167;DHT22;11249;52.468;13.776;2023-08-06T09:09:15;17.60;99.90
22167;DHT22;11249;52.468;13.776;2023-08-06T09:11:44;17.70;99.90
22167;DHT22;11249;52.468;13.776;2023-08-06T09:14:11;17.80;99.90
22167;DHT22;11249;52.468;13.776;2023-08-06T09:16:38;17.80;99.90
22167;DHT22;11249;52.468;13.776;2023-08-06T09:19:09;17.80;99.90
22167;DHT22;11249;52.468;13.776;2023-08-06T09:21:39;17.80;99.90
22167;DHT22;11249;52.468;13.776;2023-08-06T09:24:10;17.90;99.90
22167;DHT22;11249;52.468;13.776;2023-08-06T09:26:37;17.90;99.90
22167;DHT22;11249;52.468;13.776;2023-08-06T09:29:06;17.90;99.90
22167;DHT22;11249;52.468;13.776;2023-08-06T09:32:02;17.90;99.90
22167;DHT22;11249;52.468;13.776;2023-08-06T09:34:29;18.00;99.90
22167;DHT22;11249;52.468;13.776;2023-08-06T09:36:56;18.00;99.90
22167;DHT22;11249;52.468;13.776;2023-08-06T09:39:30;18.00;99.90
22167;DHT22;11249;52.468;13.776;2023-08-06T09:42:01;17.90;99.90
22167;DHT22;11249;52.468;13.776;2023-08-06T09:44:29;18.00;99.90
22167;DHT22;11249;52.468;13.776;2023-08-06T09:46:57;18.00;99.90
22167;DHT22;11249;52.468;13.776;2023-08-06T09:49:29;18.00;99.90
22167;DHT22;11249;52.468;13.776;2023-08-06T09:52:07;18.00;99.90
22167;DHT22;11249;52.468;13.776;2023-08-06T09:54:37;18.00;99.90
22167;DHT22;11249;52.468;13.776;2023-08-06T09:57:05;17.90;99.90
22167;DHT22;11249;52.468;13.776;2023-08-06T09:59:35;17.80;99.90
22167;DHT22;11249;52.468;13.776;2023-08-06T10:02:10;17.90;99.90
22167;DHT22;11249;52.468;13.776;2023-08-06T10:04:39;17.80;99.90
22167;DHT22;11249;52.468;13.776;2023-08-06T10:07:07;17.80;99.90
22167;DHT22;11249;52.468;13.776;2023-08-06T10:09:34;17.80;99.90
22167;DHT22;11249;52.468;13.776;2023-08-06T10:12:01;17.80;99.90
22167;DHT22;11249;52.468;13.776;2023-08-06T10:14:32;17.80;99.90
22167;DHT22;11249;52.468;13.776;2023-08-06T10:17:00;17.80;99.90
22167;DHT22;11249;52.468;13.776;2023-08-06T10:19:27;17.80;99.90
22167;DHT22;11249;52.468;13.776;2023-08-06T10:22:11;17.80;99.90
22167;DHT22;11249;52.468;13.776;2023-08-06T10:24:58;17.80;99.90
22167;DHT22;11249;52.468;13.776;2023-08-06T10:30:31;17.70;99.90
22167;DHT22;11249;52.468;13.776;2023-08-06T10:33:00;17.70;99.90
22167;DHT22;11249;52.468;13.776;2023-08-06T10:38:08;17.60;99.90
22167;DHT22;11249;52.468;13.776;2023-08-06T10:40:40;17.60;99.90
22167;DHT22;11249;52.468;13.776;2023-08-06T10:43:07;17.60;99.90
22167;DHT22;11249;52.468;13.776;2023-08-06T10:45:37;17.60;99.90
22167;DHT22;11249;52.468;13.776;2023-08-06T10:48:04;17.60;99.90
22167;DHT22;11249;52.468;13.776;2023-08-06T10:50:32;17.60;99.90
22167;DHT22;11249;52.468;13.776;2023-08-06T10:53:04;17.60;99.90
22167;DHT22;11249;52.468;13.776;2023-08-06T10:55:32;17.70;99.90
22167;DHT22;11249;52.468;13.776;2023-08-06T10:57:59;17.70;99.90
22167;DHT22;11249;52.468;13.776;2023-08-06T11:00:26;17.70;99.90
22167;DHT22;11249;52.468;13.776;2023-08-06T11:02:53;17.70;99.90
22167;DHT22;11249;52.468;13.776;2023-08-06T11:05:20;17.60;99.90
22167;DHT22;11249;52.468;13.776;2023-08-06T11:07:48;17.70;99.90
22167;DHT22;11249;52.468;13.776;2023-08-06T11:10:16;17.70;99.90
22167;DHT22;11249;52.468;13.776;2023-08-06T11:12:43;17.70;99.90
22167;DHT22;11249;52.468;13.776;2023-08-06T11:15:10;17.70;99.90
22167;DHT22;11249;52.468;13.776;2023-08-06T11:17:40;17.80;99.90
22167;DHT22;11249;52.468;13.776;2023-08-06T11:20:07;17.80;99.90
22167;DHT22;11249;52.468;13.776;2023-08-06T11:22:35;17.80;99.90
22167;DHT22;11249;52.468;13.776;2023-08-06T11:25:02;17.80;99.90
22167;DHT22;11249;52.468;13.776;2023-08-06T11:27:29;17.80;99.90
22167;DHT22;11249;52.468;13.776;2023-08-06T11:29:56;17.80;99.90
22167;DHT22;11249;52.468;13.776;2023-08-06T11:32:23;17.90;99.90
22167;DHT22;11249;52.468;13.776;2023-08-06T11:34:49;17.90;99.90
22167;DHT22;11249;52.468;13.776;2023-08-06T11:37:21;17.90;99.90
22167;DHT22;11249;52.468;13.776;2023-08-06T11:39:49;17.90;99.90
22167;DHT22;11249;52.468;13.776;2023-08-06T11:42:16;17.90;99.90
22167;DHT22;11249;52.468;13.776;2023-08-06T11:44:43;17.90;99.90
22167;DHT22;11249;52.468;13.776;2023-08-06T11:47:15;17.90;99.90
22167;DHT22;11249;52.468;13.776;2023-08-06T11:49:47;17.80;99.90
22167;DHT22;11249;52.468;13.776;2023-08-06T11:52:22;17.90;99.90
22167;DHT22;11249;52.468;13.776;2023-08-06T11:55:07;18.00;99.90
22167;DHT22;11249;52.468;13.776;2023-08-06T11:57:34;18.00;99.90
22167;DHT22;11249;52.468;13.776;2023-08-06T12:00:09;18.10;99.90
22167;DHT22;11249;52.468;13.776;2023-08-06T12:02:38;18.00;99.90
22167;DHT22;11249;52.468;13.776;2023-08-06T12:05:13;18.00;99.90
22167;DHT22;11249;52.468;13.776;2023-08-06T12:07:42;18.10;99.90
22167;DHT22;11249;52.468;13.776;2023-08-06T12:10:09;18.10;99.90
22167;DHT22;11249;52.468;13.776;2023-08-06T12:12:36;18.10;99.90
22167;DHT22;11249;52.468;13.776;2023-08-06T12:15:06;18.10;99.90
22167;DHT22;11249;52.468;13.776;2023-08-06T12:17:33;18.10;99.90
22167;DHT22;11249;52.468;13.776;2023-08-06T12:20:00;18.20;99.90
22167;DHT22;11249;52.468;13.776;2023-08-06T12:22:27;18.20;99.90
22167;DHT22;11249;52.468;13.776;2023-08-06T12:24:54;18.20;99.90
22167;DHT22;11249;52.468;13.776;2023-08-06T12:27:20;18.10;99.90
22167;DHT22;11249;52.468;13.776;2023-08-06T12:29:48;18.20;99.90
22167;DHT22;11249;52.468;13.776;2023-08-06T12:32:15;18.20;99.90
22167;DHT22;11249;52.468;13.776;2023-08-06T12:34:42;18.20;99.90
22167;DHT22;11249;52.468;13.776;2023-08-06T12:37:19;18.20;99.90
22167;DHT22;11249;52.468;13.776;2023-08-06T12:39:46;18.20;99.90
22167;DHT22;11249;52.468;13.776;2023-08-06T12:42:13;18.10;99.90
22167;DHT22;11249;52.468;13.776;2023-08-06T12:44:40;18.10;99.90
22167;DHT22;11249;52.468;13.776;2023-08-06T12:47:07;18.10;99.90
22167;DHT22;11249;52.468;13.776;2023-08-06T12:49:34;18.10;99.90
22167;DHT22;11249;52.468;13.776;2023-08-06T12:52:01;18.10;99.90
22167;DHT22;11249;52.468;13.776;2023-08-06T12:54:28;18.10;99.90
22167;DHT22;11249;52.468;13.776;2023-08-06T12:56:55;18.10;99.90
22167;DHT22;11249;52.468;13.776;2023-08-06T12:59:22;18.10;99.90
22167;DHT22;11249;52.468;13.776;2023-08-06T13:01:49;18.10;99.90
22167;DHT22;11249;52.468;13.776;2023-08-06T13:04:16;18.10;99.90
22167;DHT22;11249;52.468;13.776;2023-08-06T13:06:48;18.10;99.90
22167;DHT22;11249;52.468;13.776;2023-08-06T13:09:15;18.10;99.90
22167;DHT22;11249;52.468;13.776;2023-08-06T13:11:42;18.10;99.90
22167;DHT22;11249;52.468;13.776;2023-08-06T13:14:13;18.10;99.90
22167;DHT22;11249;52.468;13.776;2023-08-06T13:16:42;18.10;99.90
22167;DHT22;11249;52.468;13.776;2023-08-06T13:19:09;18.10;99.90
22167;DHT22;11249;52.468;13.776;2023-08-06T13:24:16;18.10;99.90
22167;DHT22;11249;52.468;13.776;2023-08-06T13:26:44;18.10;99.90
22167;DHT22;11249;52.468;13.776;2023-08-06T13:29:10;18.10;99.90
22167;DHT22;11249;52.468;13.776;2023-08-06T13:31:37;18.10;99.90
22167;DHT22;11249;52.468;13.776;2023-08-06T13:34:04;18.00;99.90
22167;DHT22;11249;52.468;13.776;2023-08-06T13:36:31;18.00;99.90
22167;DHT22;11249;52.468;13.776;2023-08-06T13:38:58;18.00;99.90
22167;DHT22;11249;52.468;13.776;2023-08-06T13:41:25;18.00;99.90
22167;DHT22;11249;52.468;13.776;2023-08-06T13:43:51;18.00;99.90
22167;DHT22;11249;52.468;13.776;2023-08-06T13:46:18;17.90;99.90
22167;DHT22;11249;52.468;13.776;2023-08-06T13:48:48;18.00;99.90
22167;DHT22;11249;52.468;13.776;2023-08-06T13:51:18;18.00;99.90
22167;DHT22;11249;52.468;13.776;2023-08-06T13:53:45;17.90;99.90
22167;DHT22;11249;52.468;13.776;2023-08-06T13:56:12;18.00;99.90
22167;DHT22;11249;52.468;13.776;2023-08-06T13:58:39;17.90;99.90
22167;DHT22;11249;52.468;13.776;2023-08-06T14:01:06;17.90;99.90
22167;DHT22;11249;52.468;13.776;2023-08-06T14:03:33;17.90;99.90
22167;DHT22;11249;52.468;13.776;2023-08-06T14:06:00;17.90;99.90
22167;DHT22;11249;52.468;13.776;2023-08-06T14:08:27;17.90;99.90
22167;DHT22;11249;52.468;13.776;2023-08-06T14:10:54;17.90;99.90
22167;DHT22;11249;52.468;13.776;2023-08-06T14:13:21;17.80;99.90
22167;DHT22;11249;52.468;13.776;2023-08-06T14:15:48;17.80;99.90
22167;DHT22;11249;52.468;13.776;2023-08-06T14:18:16;17.80;99.90
22167;DHT22;11249;52.468;13.776;2023-08-06T14:20:43;17.80;99.90
22167;DHT22;11249;52.468;13.776;2023-08-06T14:23:11;17.80;99.90
22167;DHT22;11249;52.468;13.776;2023-08-06T14:25:38;17.80;99.90
22167;DHT22;11249;52.468;13.776;2023-08-06T14:28:06;17.80;99.90
22167;DHT22;11249;52.468;13.776;2023-08-06T14:30:34;17.80;99.90
22167;DHT22;11249;52.468;13.776;2023-08-06T14:33:02;17.70;99.90
22167;DHT22;11249;52.468;13.776;2023-08-06T14:35:47;17.70;99.90
22167;DHT22;11249;52.468;13.776;2023-08-06T14:38:14;17.70;99.90
22167;DHT22;11249;52.468;13.776;2023-08-06T14:40:40;17.70;99.90
22167;DHT22;11249;52.468;13.776;2023-08-06T14:43:07;17.70;99.90
22167;DHT22;11249;52.468;13.776;2023-08-06T14:45:38;17.70;99.90
22167;DHT22;11249;52.468;13.776;2023-08-06T14:48:05;17.70;99.90
22167;DHT22;11249;52.468;13.776;2023-08-06T14:50:32;17.60;99.90
22167;DHT22;11249;52.468;13.776;2023-08-06T14:52:58;17.50;99.90
22167;DHT22;11249;52.468;13.776;2023-08-06T14:55:31;17.50;99.90
22167;DHT22;11249;52.468;13.776;2023-08-06T14:58:01;17.40;99.90
22167;DHT22;11249;52.468;13.776;2023-08-06T15:00:28;17.40;99.90
22167;DHT22;11249;52.468;13.776;2023-08-06T15:02:55;17.40;99.90
22167;DHT22;11249;52.468;13.776;2023-08-06T15:05:21;17.40;99.90
22167;DHT22;11249;52.468;13.776;2023-08-06T15:07:48;17.40;99.90
22167;DHT22;11249;52.468;13.776;2023-08-06T15:10:15;17.40;99.90
22167;DHT22;11249;52.468;13.776;2023-08-06T15:12:45;17.40;99.90
22167;DHT22;11249;52.468;13.776;2023-08-06T15:15:12;17.40;99.90
22167;DHT22;11249;52.468;13.776;2023-08-06T15:17:38;17.50;99.90
22167;DHT22;11249;52.468;13.776;2023-08-06T15:20:06;17.60;99.90
22167;DHT22;11249;52.468;13.776;2023-08-06T15:22:33;17.60;99.90
22167;DHT22;11249;52.468;13.776;2023-08-06T15:25:00;17.60;99.90
22167;DHT22;11249;52.468;13.776;2023-08-06T15:27:27;17.60;99.90
22167;DHT22;11249;52.468;13.776;2023-08-06T15:29:54;17.60;99.90
22167;DHT22;11249;52.468;13.776;2023-08-06T15:32:21;17.60;99.90